Time;durP1;ratioP1;P1;durP2;ratioP2;P2;SDS_P1;SDS_P2;PMS_P1;PMS_P2;Temp;Humidity;BMP_temperature;BMP_pressure;BME280_temperature;BME280_humidity;BME280_pressure;Samples;Min_cycle;Max_cycle;Signal;HPM_P1;HPM_P2
2020/12/18 00:01:48;;;;;;;18.23;4.32;;;;;;;;;;5002115;28;20039;-59
2020/12/18 00:04:16;;;;;;;11.98;4.60;;;;;;;;;;4990430;28;20052;-60
2020/12/18 00:06:42;;;;;;;9.80;3.60;;;;;;;;;;4999879;28;20030;-57
2020/12/18 00:09:09;;;;;;;11.82;3.60;;;;;;;;;;5007207;28;20049;-58
2020/12/18 00:11:35;;;;;;;12.68;3.97;;;;;;;;;;5022134;28;20046;-59
2020/12/18 00:14:01;;;;;;;10.25;3.75;;;;;;;;;;5013624;28;20048;-60
2020/12/18 00:16:32;;;;;;;8.23;3.53;;;;;;;;;;5003866;28;20053;-60
2020/12/18 00:18:57;;;;;;;10.70;4.03;;;;;;;;;;5000830;28;20046;-59
2020/12/18 00:21:24;;;;;;;10.20;3.72;;;;;;;;;;5004613;28;20066;-57
2020/12/18 00:23:50;;;;;;;12.93;3.42;;;;;;;;;;5000210;28;20039;-58
2020/12/18 00:26:16;;;;;;;8.00;3.17;;;;;;;;;;5022983;28;20176;-58
2020/12/18 00:28:43;;;;;;;9.15;3.45;;;;;;;;;;5022369;28;20061;-60
2020/12/18 00:31:09;;;;;;;8.88;3.88;;;;;;;;;;5019402;28;20046;-58
2020/12/18 00:33:36;;;;;;;11.43;4.07;;;;;;;;;;5024302;28;20090;-58
2020/12/18 00:36:02;;;;;;;12.93;3.63;;;;;;;;;;5004788;28;20054;-57
2020/12/18 00:38:29;;;;;;;10.20;3.85;;;;;;;;;;5004683;28;20062;-61
2020/12/18 00:40:54;;;;;;;8.35;3.10;;;;;;;;;;4999879;28;20049;-60
2020/12/18 00:43:21;;;;;;;14.05;3.88;;;;;;;;;;5001429;28;20042;-60
2020/12/18 00:45:47;;;;;;;11.57;3.63;;;;;;;;;;5000385;28;20053;-60
2020/12/18 00:48:13;;;;;;;8.48;3.70;;;;;;;;;;5002985;28;20042;-57
2020/12/18 00:50:40;;;;;;;9.13;3.67;;;;;;;;;;4999965;28;20038;-54
2020/12/18 00:53:07;;;;;;;11.18;3.72;;;;;;;;;;5003971;28;20069;-59
2020/12/18 00:55:34;;;;;;;8.85;3.50;;;;;;;;;;4999941;28;20046;-59
2020/12/18 00:57:59;;;;;;;8.75;3.65;;;;;;;;;;5003232;28;20030;-58
2020/12/18 01:00:25;;;;;;;9.05;2.97;;;;;;;;;;4999891;28;20199;-60
2020/12/18 01:02:51;;;;;;;8.50;3.70;;;;;;;;;;5003112;28;20045;-58
2020/12/18 01:05:17;;;;;;;10.45;3.60;;;;;;;;;;5002448;28;20054;-56
2020/12/18 01:07:50;;;;;;;9.73;3.30;;;;;;;;;;5038888;28;20119;-60
2020/12/18 01:10:16;;;;;;;12.25;3.63;;;;;;;;;;5024129;28;20061;-57
2020/12/18 01:12:42;;;;;;;11.88;3.53;;;;;;;;;;5019778;28;20097;-61
2020/12/18 01:15:08;;;;;;;8.88;3.13;;;;;;;;;;5023119;28;20484;-61
2020/12/18 01:17:34;;;;;;;10.05;4.05;;;;;;;;;;5020057;28;20038;-57
2020/12/18 01:20:00;;;;;;;10.20;3.38;;;;;;;;;;5021487;28;20037;-61
2020/12/18 01:22:26;;;;;;;9.45;3.15;;;;;;;;;;5019382;28;20041;-61
2020/12/18 01:24:53;;;;;;;9.05;3.38;;;;;;;;;;5022396;28;20052;-59
2020/12/18 01:27:20;;;;;;;6.43;2.97;;;;;;;;;;5018367;28;20033;-61
2020/12/18 01:29:46;;;;;;;12.80;3.45;;;;;;;;;;5021753;28;20041;-60
2020/12/18 01:32:12;;;;;;;10.68;4.00;;;;;;;;;;5017941;28;20057;-59
2020/12/18 01:34:38;;;;;;;9.63;3.53;;;;;;;;;;5023689;28;20046;-61
2020/12/18 01:37:06;;;;;;;14.73;4.20;;;;;;;;;;5019112;28;20131;-58
2020/12/18 01:39:32;;;;;;;9.18;4.03;;;;;;;;;;5021772;28;20128;-58
2020/12/18 01:41:58;;;;;;;10.93;3.85;;;;;;;;;;5011088;28;20046;-59
2020/12/18 01:44:24;;;;;;;8.82;3.45;;;;;;;;;;5001478;28;20050;-60
2020/12/18 01:46:51;;;;;;;14.15;3.97;;;;;;;;;;5002127;28;20046;-61
2020/12/18 01:49:17;;;;;;;7.50;3.30;;;;;;;;;;5018302;28;20053;-58
2020/12/18 01:51:43;;;;;;;8.80;2.95;;;;;;;;;;5021686;28;20133;-56
2020/12/18 01:54:09;;;;;;;8.40;3.53;;;;;;;;;;5018160;28;20060;-60
2020/12/18 01:56:36;;;;;;;13.32;3.90;;;;;;;;;;5023490;28;20050;-56
2020/12/18 01:59:04;;;;;;;7.88;3.13;;;;;;;;;;5017295;28;20044;-58
2020/12/18 02:01:29;;;;;;;11.43;3.35;;;;;;;;;;5017299;28;20157;-59
2020/12/18 02:03:56;;;;;;;11.68;4.68;;;;;;;;;;4999849;28;20058;-59
2020/12/18 02:06:25;;;;;;;7.88;3.38;;;;;;;;;;5002069;28;20484;-60
2020/12/18 02:08:51;;;;;;;8.27;2.85;;;;;;;;;;4998325;28;20120;-58
2020/12/18 02:11:26;;;;;;;11.25;3.78;;;;;;;;;;5001656;28;20050;-58
2020/12/18 02:13:52;;;;;;;9.15;3.33;;;;;;;;;;5000718;28;20038;-58
2020/12/18 02:16:19;;;;;;;9.95;3.75;;;;;;;;;;5003204;28;20036;-59
2020/12/18 02:18:46;;;;;;;7.82;3.17;;;;;;;;;;5004694;28;20037;-56
2020/12/18 02:21:12;;;;;;;13.05;3.38;;;;;;;;;;5021473;28;20104;-57
2020/12/18 02:23:38;;;;;;;11.13;2.80;;;;;;;;;;5021029;28;20486;-58
2020/12/18 02:26:05;;;;;;;9.57;3.03;;;;;;;;;;5022702;28;20052;-57
2020/12/18 02:28:31;;;;;;;12.95;3.33;;;;;;;;;;5017901;28;20044;-59
2020/12/18 02:30:58;;;;;;;10.40;3.30;;;;;;;;;;5002296;28;20071;-61
2020/12/18 02:33:24;;;;;;;6.60;2.97;;;;;;;;;;5002725;28;20136;-61
2020/12/18 02:35:54;;;;;;;11.15;3.15;;;;;;;;;;5018963;28;20057;-55
2020/12/18 02:38:20;;;;;;;9.13;3.10;;;;;;;;;;5005524;28;20041;-58
2020/12/18 02:40:46;;;;;;;8.13;2.88;;;;;;;;;;4997144;28;20046;-56
2020/12/18 02:43:13;;;;;;;8.70;2.97;;;;;;;;;;5001522;28;20045;-58
2020/12/18 02:45:39;;;;;;;8.48;3.10;;;;;;;;;;5003698;28;20038;-61
2020/12/18 02:48:05;;;;;;;9.63;3.25;;;;;;;;;;5001575;28;20046;-59
2020/12/18 02:50:30;;;;;;;7.22;2.60;;;;;;;;;;4997805;28;20094;-58
2020/12/18 02:52:57;;;;;;;8.93;2.63;;;;;;;;;;5021688;28;20491;-59
2020/12/18 02:55:23;;;;;;;8.80;3.33;;;;;;;;;;5010569;28;20042;-61
2020/12/18 02:57:49;;;;;;;10.45;2.95;;;;;;;;;;5000674;28;20063;-61
2020/12/18 03:00:18;;;;;;;8.98;2.78;;;;;;;;;;5002137;28;20531;-58
2020/12/18 03:02:44;;;;;;;14.20;3.28;;;;;;;;;;4996498;28;20050;-57
2020/12/18 03:05:11;;;;;;;8.68;2.97;;;;;;;;;;4997736;28;20038;-61
2020/12/18 03:07:37;;;;;;;12.50;3.10;;;;;;;;;;5001318;28;20053;-58
2020/12/18 03:10:03;;;;;;;8.48;2.95;;;;;;;;;;5002824;28;20038;-61
2020/12/18 03:12:29;;;;;;;9.52;3.67;;;;;;;;;;5005220;28;20037;-60
2020/12/18 03:14:55;;;;;;;8.98;2.70;;;;;;;;;;5021809;28;20038;-59
2020/12/18 03:17:23;;;;;;;12.95;3.15;;;;;;;;;;4999892;28;20042;-60
2020/12/18 03:19:49;;;;;;;6.07;2.30;;;;;;;;;;5001679;28;20182;-60
2020/12/18 03:22:15;;;;;;;9.07;2.85;;;;;;;;;;5012158;28;20054;-59
2020/12/18 03:24:41;;;;;;;10.30;2.90;;;;;;;;;;5021313;28;20037;-61
2020/12/18 03:27:07;;;;;;;8.63;2.67;;;;;;;;;;5017200;28;20060;-59
2020/12/18 03:29:33;;;;;;;14.35;2.78;;;;;;;;;;5020322;28;20041;-61
2020/12/18 03:31:59;;;;;;;10.25;2.78;;;;;;;;;;5009994;28;20042;-61
2020/12/18 03:34:26;;;;;;;6.25;2.55;;;;;;;;;;5001740;28;20425;-59
2020/12/18 03:36:52;;;;;;;8.88;2.72;;;;;;;;;;5001384;28;20058;-60
2020/12/18 03:39:18;;;;;;;8.55;3.22;;;;;;;;;;5020454;28;20046;-59
2020/12/18 03:41:44;;;;;;;10.40;2.80;;;;;;;;;;5014243;28;20065;-60
2020/12/18 03:44:10;;;;;;;7.60;2.65;;;;;;;;;;5022740;28;20041;-61
2020/12/18 03:46:36;;;;;;;9.32;2.40;;;;;;;;;;5023356;28;20045;-58
2020/12/18 03:49:02;;;;;;;9.18;2.72;;;;;;;;;;5002408;28;20053;-57
2020/12/18 03:51:31;;;;;;;9.60;2.45;;;;;;;;;;5004896;28;20046;-58
2020/12/18 03:53:57;;;;;;;8.90;2.45;;;;;;;;;;5001240;28;20050;-60
2020/12/18 03:56:23;;;;;;;8.27;2.28;;;;;;;;;;5005276;28;20066;-54
2020/12/18 03:58:49;;;;;;;8.00;2.60;;;;;;;;;;5001883;28;20476;-60
2020/12/18 04:01:15;;;;;;;6.53;2.53;;;;;;;;;;5005194;28;20034;-58
2020/12/18 04:03:44;;;;;;;9.50;2.65;;;;;;;;;;5014078;28;20049;-60
2020/12/18 04:06:10;;;;;;;10.70;2.58;;;;;;;;;;5023474;28;20045;-61
2020/12/18 04:08:38;;;;;;;6.40;2.25;;;;;;;;;;5010267;28;20134;-59
2020/12/18 04:11:04;;;;;;;10.40;2.47;;;;;;;;;;5003856;28;20050;-61
2020/12/18 04:13:30;;;;;;;4.95;2.15;;;;;;;;;;5007640;28;20145;-57
2020/12/18 04:15:56;;;;;;;9.25;2.40;;;;;;;;;;5024374;28;20061;-60
2020/12/18 04:18:23;;;;;;;7.07;2.38;;;;;;;;;;5018811;28;20168;-58
2020/12/18 04:20:49;;;;;;;14.05;2.10;;;;;;;;;;5021978;28;20045;-56
2020/12/18 04:23:15;;;;;;;5.63;1.80;;;;;;;;;;5018266;28;20100;-57
2020/12/18 04:25:42;;;;;;;5.60;2.25;;;;;;;;;;5005431;28;20034;-57
2020/12/18 04:28:08;;;;;;;7.95;2.20;;;;;;;;;;5003423;28;20057;-57
2020/12/18 04:30:34;;;;;;;7.05;2.15;;;;;;;;;;5035459;28;20044;-60
2020/12/18 04:32:59;;;;;;;8.27;2.28;;;;;;;;;;5022304;28;20038;-60
2020/12/18 04:35:27;;;;;;;9.07;1.92;;;;;;;;;;5020562;28;20156;-60
2020/12/18 04:37:53;;;;;;;6.13;1.75;;;;;;;;;;5022011;28;20127;-57
2020/12/18 04:40:19;;;;;;;8.45;2.50;;;;;;;;;;5015030;28;20038;-54
2020/12/18 04:42:46;;;;;;;6.55;2.50;;;;;;;;;;5002742;28;20066;-59
2020/12/18 04:45:12;;;;;;;8.90;1.98;;;;;;;;;;4999520;28;20054;-60
2020/12/18 04:47:40;;;;;;;11.50;2.67;;;;;;;;;;5003307;28;20212;-59
2020/12/18 04:50:09;;;;;;;3.78;1.70;;;;;;;;;;4999731;28;20575;-58
2020/12/18 04:52:35;;;;;;;;;;;;;;;;;;5003602;28;20042;-60
2020/12/18 04:55:01;;;;;;;4.53;1.67;;;;;;;;;;5005371;28;20039;-58
2020/12/18 04:57:29;;;;;;;4.78;1.85;;;;;;;;;;5022466;28;20037;-60
2020/12/18 04:59:56;;;;;;;6.70;1.73;;;;;;;;;;5018477;28;20025;-56
2020/12/18 05:02:23;;;;;;;7.22;1.88;;;;;;;;;;5022046;28;20056;-59
2020/12/18 05:04:49;;;;;;;7.85;2.10;;;;;;;;;;5017793;28;20042;-59
2020/12/18 05:07:15;;;;;;;9.57;2.00;;;;;;;;;;5001417;28;20042;-60
2020/12/18 05:09:44;;;;;;;7.50;2.05;;;;;;;;;;5003915;28;20128;-62
2020/12/18 05:12:09;;;;;;;;;;;;;;;;;;5019462;28;20483;-61
2020/12/18 05:14:38;;;;;;;4.88;1.55;;;;;;;;;;5021105;28;20011;-60
2020/12/18 05:17:08;;;;;;;5.82;2.22;;;;;;;;;;5002287;28;20086;-60
2020/12/18 05:19:35;;;;;;;8.32;2.08;;;;;;;;;;5003846;28;20520;-60
2020/12/18 05:22:05;;;;;;;5.47;1.92;;;;;;;;;;4999310;28;20058;-59
2020/12/18 05:24:31;;;;;;;10.98;2.40;;;;;;;;;;5004767;28;20038;-59
2020/12/18 05:27:00;;;;;;;5.65;2.20;;;;;;;;;;5001015;28;20054;-56
2020/12/18 05:29:25;;;;;;;;;;;;;;;;;;5004126;28;20109;-61
2020/12/18 05:31:51;;;;;;;8.10;1.77;;;;;;;;;;5008730;28;19932;-59
2020/12/18 05:34:19;;;;;;;7.13;2.05;;;;;;;;;;5021012;28;20046;-61
2020/12/18 05:36:46;;;;;;;9.48;2.00;;;;;;;;;;5018242;28;20041;-60
2020/12/18 05:39:12;;;;;;;7.00;1.60;;;;;;;;;;5022382;28;20064;-60
2020/12/18 05:41:40;;;;;;;6.65;1.67;;;;;;;;;;5020382;28;20044;-59
2020/12/18 05:44:06;;;;;;;8.00;1.52;;;;;;;;;;5021360;28;20053;-62
2020/12/18 05:46:34;;;;;;;8.13;2.10;;;;;;;;;;5015168;28;20149;-61
2020/12/18 05:49:01;;;;;;;5.70;1.88;;;;;;;;;;5002946;28;20615;-58
2020/12/18 05:51:32;;;;;;;12.85;1.80;;;;;;;;;;5000004;28;20038;-61
2020/12/18 05:54:14;;;;;;;9.10;1.63;;;;;;;;;;5002555;28;20042;-59
2020/12/18 05:56:40;;;;;;;5.35;1.67;;;;;;;;;;4997546;28;20061;-56
2020/12/18 05:59:07;;;;;;;9.20;2.13;;;;;;;;;;5000198;28;20046;-60
2020/12/18 06:01:33;;;;;;;6.28;1.83;;;;;;;;;;5006752;28;20085;-60
2020/12/18 06:04:02;;;;;;;7.35;1.55;;;;;;;;;;5001902;28;20057;-61
2020/12/18 06:06:30;;;;;;;5.50;1.40;;;;;;;;;;5001418;28;20034;-57
2020/12/18 06:08:58;;;;;;;3.03;1.60;;;;;;;;;;4998477;28;20046;-61
2020/12/18 06:11:30;;;;;;;4.80;1.58;;;;;;;;;;5002573;28;20069;-58
2020/12/18 06:13:58;;;;;;;8.75;1.92;;;;;;;;;;4999271;28;20038;-60
2020/12/18 06:16:25;;;;;;;4.72;1.45;;;;;;;;;;5001984;28;20070;-60
2020/12/18 06:18:54;;;;;;;4.82;1.85;;;;;;;;;;4998909;28;20140;-58
2020/12/18 06:21:20;;;;;;;7.80;1.73;;;;;;;;;;5004619;28;20123;-57
2020/12/18 06:23:49;;;;;;;8.45;1.88;;;;;;;;;;5000137;28;20058;-60
2020/12/18 06:26:19;;;;;;;4.25;1.48;;;;;;;;;;5002584;28;20042;-59
2020/12/18 06:28:45;;;;;;;5.82;1.63;;;;;;;;;;5006161;28;20030;-61
2020/12/18 06:31:22;;;;;;;6.53;1.70;;;;;;;;;;5022212;28;20030;-56
2020/12/18 06:33:51;;;;;;;13.05;2.08;;;;;;;;;;5017968;28;20153;-62
2020/12/18 06:36:19;;;;;;;5.00;1.77;;;;;;;;;;5019746;28;20045;-61
2020/12/18 06:38:45;;;;;;;8.43;1.75;;;;;;;;;;5015170;28;20030;-59
2020/12/18 06:41:22;;;;;;;7.65;1.70;;;;;;;;;;5002286;28;20049;-60
2020/12/18 06:43:48;;;;;;;4.00;1.67;;;;;;;;;;4997531;28;20068;-60
2020/12/18 06:46:18;;;;;;;8.38;1.77;;;;;;;;;;5002232;28;20069;-60
2020/12/18 06:48:49;;;;;;;6.95;2.22;;;;;;;;;;4998748;28;20053;-60
2020/12/18 06:51:25;;;;;;;8.65;2.10;;;;;;;;;;5022975;28;20045;-58
2020/12/18 06:54:06;;;;;;;6.55;1.90;;;;;;;;;;5020828;28;20127;-61
2020/12/18 06:56:35;;;;;;;9.25;1.80;;;;;;;;;;5003454;28;20045;-59
2020/12/18 06:59:16;;;;;;;7.13;1.83;;;;;;;;;;5000892;28;20038;-59
2020/12/18 07:01:42;;;;;;;6.97;1.50;;;;;;;;;;5005132;28;20046;-59
2020/12/18 07:04:17;;;;;;;7.07;1.90;;;;;;;;;;4999999;28;20071;-57
2020/12/18 07:06:47;;;;;;;8.20;2.22;;;;;;;;;;5018548;28;20037;-61
2020/12/18 07:09:13;;;;;;;10.27;1.80;;;;;;;;;;5021176;28;20041;-59
2020/12/18 07:11:41;;;;;;;4.03;1.50;;;;;;;;;;5016657;28;20041;-59
2020/12/18 07:14:14;;;;;;;5.82;1.60;;;;;;;;;;5020453;28;20046;-59
2020/12/18 07:16:51;;;;;;;4.75;1.60;;;;;;;;;;5008078;28;20031;-59
2020/12/18 07:19:18;;;;;;;8.45;1.58;;;;;;;;;;5011672;28;20034;-59
2020/12/18 07:21:44;;;;;;;4.80;1.45;;;;;;;;;;5019661;28;20072;-60
2020/12/18 07:24:11;;;;;;;18.30;1.73;;;;;;;;;;5024614;28;20127;-57
2020/12/18 07:26:38;;;;;;;5.22;1.70;;;;;;;;;;5006597;28;20086;-59
2020/12/18 07:29:06;;;;;;;5.00;1.80;;;;;;;;;;5004645;28;20034;-59
2020/12/18 07:31:32;;;;;;;4.88;1.70;;;;;;;;;;5010703;28;20030;-59
2020/12/18 07:33:59;;;;;;;4.90;1.58;;;;;;;;;;5024721;28;20033;-59
2020/12/18 07:36:26;;;;;;;6.53;1.83;;;;;;;;;;5011915;28;20488;-57
2020/12/18 07:38:57;;;;;;;7.38;1.63;;;;;;;;;;5002503;28;20161;-58
2020/12/18 07:41:24;;;;;;;8.57;1.65;;;;;;;;;;5001368;28;20099;-55
2020/12/18 07:43:50;;;;;;;5.80;1.58;;;;;;;;;;4996901;28;20415;-59
2020/12/18 07:46:18;;;;;;;8.10;1.63;;;;;;;;;;5002886;28;20046;-58
2020/12/18 07:48:48;;;;;;;8.57;2.60;;;;;;;;;;5005121;28;20066;-61
2020/12/18 07:51:16;;;;;;;6.72;2.28;;;;;;;;;;5000685;28;20440;-58
2020/12/18 07:53:42;;;;;;;7.53;2.67;;;;;;;;;;5017643;28;20042;-60
2020/12/18 07:56:09;;;;;;;8.13;2.78;;;;;;;;;;5023695;28;20279;-61
2020/12/18 07:58:44;;;;;;;10.10;2.03;;;;;;;;;;5002749;28;20045;-57
2020/12/18 08:01:11;;;;;;;7.78;2.13;;;;;;;;;;5005452;28;20046;-58
2020/12/18 08:03:39;;;;;;;5.75;1.70;;;;;;;;;;5002638;28;20046;-60
2020/12/18 08:06:05;;;;;;;2.28;1.30;;;;;;;;;;5004046;28;20049;-57
2020/12/18 08:08:32;;;;;;;8.68;1.80;;;;;;;;;;5015221;28;20096;-58
2020/12/18 08:11:03;;;;;;;10.43;2.85;;;;;;;;;;5023338;28;20040;-58
2020/12/18 08:13:29;;;;;;;4.90;1.85;;;;;;;;;;5006648;28;20065;-60
2020/12/18 08:16:09;;;;;;;10.63;1.65;;;;;;;;;;5003706;28;20045;-59
2020/12/18 08:18:43;;;;;;;7.47;1.75;;;;;;;;;;5003813;28;20126;-61
2020/12/18 08:21:09;;;;;;;4.85;1.52;;;;;;;;;;5005905;28;20053;-60
2020/12/18 08:23:37;;;;;;;8.40;1.88;;;;;;;;;;5010818;28;20037;-61
2020/12/18 08:26:05;;;;;;;6.20;1.70;;;;;;;;;;5023973;28;20109;-61
2020/12/18 08:28:31;;;;;;;10.40;1.87;;;;;;;;;;5020354;28;20046;-61
2020/12/18 08:31:05;;;;;;;5.70;1.60;;;;;;;;;;5020151;28;20131;-58
2020/12/18 08:33:31;;;;;;;6.50;1.80;;;;;;;;;;5019473;28;20049;-62
2020/12/18 08:35:58;;;;;;;5.30;1.77;;;;;;;;;;5021902;28;20042;-61
2020/12/18 08:38:24;;;;;;;3.60;1.70;;;;;;;;;;5019382;28;20025;-58
2020/12/18 08:40:54;;;;;;;6.20;1.92;;;;;;;;;;5023192;28;20173;-61
2020/12/18 08:43:21;;;;;;;5.55;1.60;;;;;;;;;;4999002;28;20062;-59
2020/12/18 08:45:47;;;;;;;13.90;2.10;;;;;;;;;;5001882;28;20046;-58
2020/12/18 08:48:18;;;;;;;11.95;3.38;;;;;;;;;;5001501;28;20052;-58
2020/12/18 08:50:47;;;;;;;4.22;1.40;;;;;;;;;;5000988;28;20115;-59
2020/12/18 08:53:15;;;;;;;4.07;1.70;;;;;;;;;;5001142;28;20089;-59
2020/12/18 08:55:41;;;;;;;4.32;1.60;;;;;;;;;;5001450;28;20038;-59
2020/12/18 08:58:08;;;;;;;10.05;2.13;;;;;;;;;;4995887;28;20057;-58
2020/12/18 09:00:34;;;;;;;4.22;2.13;;;;;;;;;;5006288;28;20116;-59
2020/12/18 09:03:01;;;;;;;5.45;2.20;;;;;;;;;;5020576;28;20062;-61
2020/12/18 09:05:28;;;;;;;6.32;2.30;;;;;;;;;;5017327;28;20409;-61
2020/12/18 09:07:57;;;;;;;8.30;2.38;;;;;;;;;;5022021;28;20041;-59
2020/12/18 09:10:36;;;;;;;7.13;2.15;;;;;;;;;;5017570;28;20052;-60
2020/12/18 09:13:16;;;;;;;5.35;2.08;;;;;;;;;;5023285;28;20092;-61
2020/12/18 09:15:43;;;;;;;12.02;2.58;;;;;;;;;;5018276;28;20057;-61
2020/12/18 09:18:11;;;;;;;9.73;2.25;;;;;;;;;;5022241;28;20041;-61
2020/12/18 09:20:37;;;;;;;4.03;2.10;;;;;;;;;;5018425;28;20045;-61
2020/12/18 09:23:05;;;;;;;7.32;2.65;;;;;;;;;;5023967;28;20037;-61
2020/12/18 09:25:36;;;;;;;4.60;1.83;;;;;;;;;;5017758;28;20042;-59
2020/12/18 09:28:02;;;;;;;6.50;2.05;;;;;;;;;;5021823;28;20069;-60
2020/12/18 09:30:28;;;;;;;7.45;2.30;;;;;;;;;;5018848;28;20050;-60
2020/12/18 09:33:14;;;;;;;11.55;2.33;;;;;;;;;;5022338;28;20049;-60
2020/12/18 09:35:40;;;;;;;5.85;2.15;;;;;;;;;;5018880;28;20042;-58
2020/12/18 09:38:08;;;;;;;11.70;2.45;;;;;;;;;;5021692;28;20185;-60
2020/12/18 09:40:35;;;;;;;10.88;2.25;;;;;;;;;;5017213;28;20045;-58
2020/12/18 09:43:01;;;;;;;10.57;2.28;;;;;;;;;;5006235;28;20048;-57
2020/12/18 09:45:27;;;;;;;6.93;2.15;;;;;;;;;;5002523;28;20115;-58
2020/12/18 09:47:56;;;;;;;5.13;2.17;;;;;;;;;;5006643;28;20049;-61
2020/12/18 09:50:22;;;;;;;9.05;2.67;;;;;;;;;;4996717;28;20142;-60
2020/12/18 09:52:48;;;;;;;6.40;2.63;;;;;;;;;;5019354;28;20049;-61
2020/12/18 09:55:14;;;;;;;7.78;2.75;;;;;;;;;;5019587;28;20049;-57
2020/12/18 09:57:42;;;;;;;12.13;3.53;;;;;;;;;;5012895;28;20087;-61
2020/12/18 10:00:10;;;;;;;8.07;2.83;;;;;;;;;;5021321;28;20073;-60
2020/12/18 10:02:36;;;;;;;7.18;3.13;;;;;;;;;;5003690;28;20034;-59
2020/12/18 10:05:03;;;;;;;7.35;3.05;;;;;;;;;;5003604;28;20061;-61
2020/12/18 10:07:29;;;;;;;12.70;3.95;;;;;;;;;;4997579;28;20324;-58
2020/12/18 10:09:55;;;;;;;20.48;3.40;;;;;;;;;;5000655;28;20057;-59
2020/12/18 10:12:21;;;;;;;8.40;3.08;;;;;;;;;;5000193;28;20086;-59
2020/12/18 10:14:48;;;;;;;8.00;2.20;;;;;;;;;;5001593;28;20052;-59
2020/12/18 10:17:14;;;;;;;7.38;2.08;;;;;;;;;;4998961;28;20046;-58
2020/12/18 10:19:40;;;;;;;7.95;2.35;;;;;;;;;;5003083;28;20062;-60
2020/12/18 10:22:06;;;;;;;8.52;2.08;;;;;;;;;;4997011;28;20161;-58
2020/12/18 10:24:32;;;;;;;11.70;2.80;;;;;;;;;;5002311;28;20124;-60
2020/12/18 10:26:58;;;;;;;7.75;2.20;;;;;;;;;;5001795;28;20106;-59
2020/12/18 10:29:24;;;;;;;7.15;1.98;;;;;;;;;;4998500;28;20488;-58
2020/12/18 10:31:55;;;;;;;8.30;2.53;;;;;;;;;;5002299;28;20070;-59
2020/12/18 10:34:21;;;;;;;3.75;1.70;;;;;;;;;;5012391;28;20044;-57
2020/12/18 10:36:54;;;;;;;4.68;2.17;;;;;;;;;;5021784;28;20543;-58
2020/12/18 10:39:22;;;;;;;7.07;2.42;;;;;;;;;;5012814;28;20050;-57
2020/12/18 10:41:48;;;;;;;9.48;2.58;;;;;;;;;;5013995;28;20057;-61
2020/12/18 10:44:14;;;;;;;5.90;2.33;;;;;;;;;;4997004;28;20050;-61
2020/12/18 10:46:41;;;;;;;5.88;2.30;;;;;;;;;;5000422;28;20065;-61
2020/12/18 10:49:09;;;;;;;7.63;2.20;;;;;;;;;;5004996;28;20065;-55
2020/12/18 10:51:38;;;;;;;7.70;2.30;;;;;;;;;;5020204;28;20709;-60
2020/12/18 10:54:05;;;;;;;6.63;2.40;;;;;;;;;;5009160;28;20038;-60
2020/12/18 10:56:31;;;;;;;7.72;2.20;;;;;;;;;;5000355;28;20049;-60
2020/12/18 10:58:57;;;;;;;4.97;2.17;;;;;;;;;;4996546;28;20045;-59
2020/12/18 11:01:23;;;;;;;8.50;2.65;;;;;;;;;;5005577;28;20050;-59
2020/12/18 11:03:49;;;;;;;7.50;2.78;;;;;;;;;;5010740;28;20031;-59
2020/12/18 11:06:16;;;;;;;11.60;2.40;;;;;;;;;;5022004;28;20061;-61
2020/12/18 11:08:42;;;;;;;16.13;2.60;;;;;;;;;;5021442;28;20045;-53
2020/12/18 11:11:12;;;;;;;9.68;2.90;;;;;;;;;;4998768;28;20042;-59
2020/12/18 11:13:38;;;;;;;5.45;1.90;;;;;;;;;;5017826;28;20037;-60
2020/12/18 11:16:04;;;;;;;6.88;2.28;;;;;;;;;;5000919;28;20128;-61
2020/12/18 11:18:33;;;;;;;7.68;2.38;;;;;;;;;;5001623;28;20042;-60
2020/12/18 11:21:00;;;;;;;13.13;2.90;;;;;;;;;;4997884;28;20042;-59
2020/12/18 11:23:27;;;;;;;13.95;3.25;;;;;;;;;;4999998;28;20058;-59
2020/12/18 11:25:52;;;;;;;8.18;3.25;;;;;;;;;;4998301;28;20094;-59
2020/12/18 11:28:19;;;;;;;8.23;2.58;;;;;;;;;;5002675;28;20042;-61
2020/12/18 11:30:45;;;;;;;10.30;2.70;;;;;;;;;;5005864;28;20066;-57
2020/12/18 11:33:10;;;;;;;7.75;2.17;;;;;;;;;;5020716;28;20042;-60
2020/12/18 11:35:38;;;;;;;7.68;2.35;;;;;;;;;;5010444;28;20046;-60
2020/12/18 11:38:04;;;;;;;5.95;1.80;;;;;;;;;;5001722;28;20126;-62
2020/12/18 11:40:31;;;;;;;5.13;1.90;;;;;;;;;;4997752;28;20092;-59
2020/12/18 11:42:57;;;;;;;7.47;2.42;;;;;;;;;;4997833;28;20034;-59
2020/12/18 11:45:24;;;;;;;7.88;2.03;;;;;;;;;;4998960;28;20104;-59
2020/12/18 11:47:50;;;;;;;8.13;2.05;;;;;;;;;;5000708;28;20384;-61
2020/12/18 11:50:17;;;;;;;7.68;2.85;;;;;;;;;;5000968;28;20042;-60
2020/12/18 11:52:43;;;;;;;7.88;2.58;;;;;;;;;;4997136;28;20180;-58
2020/12/18 11:55:10;;;;;;;12.30;2.15;;;;;;;;;;4999691;28;20095;-58
2020/12/18 11:57:38;;;;;;;6.53;2.25;;;;;;;;;;4999986;28;20118;-60
2020/12/18 12:00:08;;;;;;;7.47;1.90;;;;;;;;;;5000140;28;20049;-61
2020/12/18 12:02:34;;;;;;;3.03;1.48;;;;;;;;;;5026940;28;20042;-58
2020/12/18 12:05:00;;;;;;;8.90;2.50;;;;;;;;;;5021908;28;20119;-62
2020/12/18 12:07:27;;;;;;;8.95;1.70;;;;;;;;;;5009193;28;20054;-61
2020/12/18 12:09:53;;;;;;;8.68;2.10;;;;;;;;;;5004278;28;20038;-59
2020/12/18 12:12:18;;;;;;;8.43;1.98;;;;;;;;;;5008522;28;20078;-59
2020/12/18 12:14:45;;;;;;;6.28;2.30;;;;;;;;;;5014727;28;20049;-61
2020/12/18 12:17:12;;;;;;;13.90;2.47;;;;;;;;;;5013665;28;20057;-59
2020/12/18 12:19:37;;;;;;;5.95;2.20;;;;;;;;;;5002700;28;20127;-56
2020/12/18 12:22:04;;;;;;;10.43;2.47;;;;;;;;;;5001836;28;20053;-59
2020/12/18 12:24:29;;;;;;;8.57;2.15;;;;;;;;;;5004326;28;20069;-59
2020/12/18 12:26:55;;;;;;;8.18;1.85;;;;;;;;;;5000331;28;20044;-59
2020/12/18 12:29:21;;;;;;;9.85;1.75;;;;;;;;;;5023669;28;20038;-57
2020/12/18 12:31:48;;;;;;;4.45;1.02;;;;;;;;;;5023669;28;20045;-62
2020/12/18 12:34:15;;;;;;;6.63;1.35;;;;;;;;;;5017285;28;20045;-61
2020/12/18 12:36:43;;;;;;;5.35;1.27;;;;;;;;;;5006237;28;20111;-62
2020/12/18 12:39:09;;;;;;;6.82;1.52;;;;;;;;;;5001380;28;20042;-60
2020/12/18 12:41:35;;;;;;;7.10;1.30;;;;;;;;;;5002961;28;20044;-58
2020/12/18 12:44:01;;;;;;;7.18;1.58;;;;;;;;;;5006058;28;20057;-58
2020/12/18 12:46:29;;;;;;;6.93;1.13;;;;;;;;;;5004559;28;20216;-60
2020/12/18 12:48:57;;;;;;;7.15;1.42;;;;;;;;;;5001740;28;20057;-61
2020/12/18 12:51:23;;;;;;;8.77;1.60;;;;;;;;;;5012293;28;20042;-60
2020/12/18 12:53:49;;;;;;;7.40;1.60;;;;;;;;;;5019064;28;20159;-59
2020/12/18 12:56:16;;;;;;;4.47;1.10;;;;;;;;;;5022567;28;20066;-61
2020/12/18 13:01:47;;;;;;;5.00;1.55;;;;;;;;;;5011054;28;20034;-60
2020/12/18 13:04:19;;;;;;;5.53;1.77;;;;;;;;;;5018823;28;20173;-59
2020/12/18 13:06:45;;;;;;;13.82;2.13;;;;;;;;;;5021098;28;20050;-57
2020/12/18 13:09:11;;;;;;;3.50;1.20;;;;;;;;;;5009481;28;20056;-55
2020/12/18 13:11:37;;;;;;;4.95;1.52;;;;;;;;;;5001507;28;20034;-62
2020/12/18 13:14:04;;;;;;;6.05;2.10;;;;;;;;;;4998335;28;20070;-58
2020/12/18 13:16:30;;;;;;;5.53;1.40;;;;;;;;;;5001735;28;20058;-60
2020/12/18 13:18:56;;;;;;;3.83;1.20;;;;;;;;;;4999893;28;20056;-60
2020/12/18 13:21:28;;;;;;;7.68;1.30;;;;;;;;;;5021133;28;20070;-59
2020/12/18 13:23:54;;;;;;;7.57;2.03;;;;;;;;;;5021235;28;20056;-60
2020/12/18 13:26:20;;;;;;;5.55;1.83;;;;;;;;;;5015733;28;20037;-58
2020/12/18 13:28:47;;;;;;;4.97;1.63;;;;;;;;;;5021984;28;20062;-59
2020/12/18 13:31:13;;;;;;;4.03;1.23;;;;;;;;;;5001347;28;20097;-57
2020/12/18 13:33:39;;;;;;;7.22;1.60;;;;;;;;;;5003817;28;20046;-61
2020/12/18 13:36:05;;;;;;;8.07;1.50;;;;;;;;;;5000820;28;20061;-61
2020/12/18 13:38:33;;;;;;;1.45;0.75;;;;;;;;;;5003479;28;20034;-57
2020/12/18 13:40:59;;;;;;;6.75;0.95;;;;;;;;;;4999412;28;20050;-61
2020/12/18 13:43:25;;;;;;;3.20;1.20;;;;;;;;;;5020655;28;20037;-62
2020/12/18 13:45:51;;;;;;;5.18;1.48;;;;;;;;;;5012153;28;20054;-59
2020/12/18 13:48:18;;;;;;;2.63;0.95;;;;;;;;;;5004328;28;20038;-61
2020/12/18 13:50:44;;;;;;;4.38;1.00;;;;;;;;;;5006667;28;20438;-61
2020/12/18 13:53:10;;;;;;;5.75;1.10;;;;;;;;;;5022145;28;20038;-60
2020/12/18 13:55:39;;;;;;;3.63;0.80;;;;;;;;;;5017328;28;20054;-58
2020/12/18 13:58:05;;;;;;;5.70;1.10;;;;;;;;;;5022076;28;20042;-62
2020/12/18 14:00:32;;;;;;;2.05;0.80;;;;;;;;;;5020405;28;20094;-58
2020/12/18 14:02:58;;;;;;;3.80;0.95;;;;;;;;;;5002617;28;20053;-59
2020/12/18 14:05:24;;;;;;;3.00;1.13;;;;;;;;;;5003153;28;20034;-60
2020/12/18 14:07:54;;;;;;;2.88;1.10;;;;;;;;;;5016457;28;20041;-61
2020/12/18 14:10:20;;;;;;;5.65;1.25;;;;;;;;;;5022846;28;20144;-61
2020/12/18 14:12:47;;;;;;;4.20;1.42;;;;;;;;;;5003073;28;20219;-61
2020/12/18 14:15:13;;;;;;;7.45;1.10;;;;;;;;;;5004031;28;20053;-58
2020/12/18 14:17:39;;;;;;;3.17;1.10;;;;;;;;;;4999705;28;20078;-57
2020/12/18 14:20:10;;;;;;;3.00;1.00;;;;;;;;;;5002812;28;20054;-58
2020/12/18 14:22:36;;;;;;;6.85;1.30;;;;;;;;;;4998977;28;20123;-61
2020/12/18 14:25:04;;;;;;;4.85;1.20;;;;;;;;;;5003294;28;20053;-61
2020/12/18 14:27:30;;;;;;;2.23;1.13;;;;;;;;;;4997207;28;20052;-62
2020/12/18 14:29:57;;;;;;;6.63;1.23;;;;;;;;;;5002096;28;20291;-61
2020/12/18 14:32:23;;;;;;;4.45;1.10;;;;;;;;;;4999055;28;20078;-61
2020/12/18 14:34:49;;;;;;;5.47;1.30;;;;;;;;;;5003380;28;20046;-58
2020/12/18 14:37:15;;;;;;;4.28;1.25;;;;;;;;;;4999989;28;20999;-59
2020/12/18 14:39:42;;;;;;;7.20;1.13;;;;;;;;;;5001791;28;20119;-60
2020/12/18 14:42:08;;;;;;;8.18;1.10;;;;;;;;;;5007977;28;20060;-58
2020/12/18 14:44:35;;;;;;;1.95;1.10;;;;;;;;;;4999960;28;20054;-62